Time,TemperatureF,DewpointF,PressureIn,WindDirection,WindDirectionDegrees,WindSpeedMPH,WindSpeedGustMPH,Humidity,HourlyPrecipIn,Conditions,Clouds,dailyrainin,SoftwareType,DateUTC
2013-03-07 00:01:00,33.0,29.0,30.33,ENE,78,0.0,0.0,84,0.00,,,0.00,,2013-03-07 06:01:00,
2013-03-07 00:11:00,33.0,29.0,30.33,ENE,78,0.0,0.0,84,0.00,,,0.00,,2013-03-07 06:11:00,
2013-03-07 00:21:00,32.0,27.0,30.33,ENE,78,0.0,0.0,83,0.00,,,0.00,,2013-03-07 06:21:00,
2013-03-07 00:32:00,31.0,27.0,30.33,ENE,78,0.0,0.0,86,0.00,,,0.00,,2013-03-07 06:32:00,
2013-03-07 00:42:00,31.0,27.0,30.33,ENE,78,0.0,0.0,86,0.00,,,0.00,,2013-03-07 06:42:00,
2013-03-07 00:51:00,31.0,28.0,30.33,ENE,78,0.0,0.0,87,0.00,,,0.00,,2013-03-07 06:51:00,
2013-03-07 01:01:00,31.0,28.0,30.33,ENE,77,0.0,0.0,87,0.00,,,0.00,,2013-03-07 07:01:00,
2013-03-07 01:11:00,31.0,28.0,30.33,ENE,77,0.0,0.0,87,0.00,,,0.00,,2013-03-07 07:11:00,
2013-03-07 01:21:00,31.0,28.0,30.32,ENE,78,0.0,0.0,89,0.00,,,0.00,,2013-03-07 07:21:00,
2013-03-07 01:32:00,31.0,28.0,30.32,ENE,78,0.0,0.0,88,0.00,,,0.00,,2013-03-07 07:32:00,
2013-03-07 01:42:00,31.0,28.0,30.32,ENE,78,0.0,0.0,88,0.00,,,0.00,,2013-03-07 07:42:00,
2013-03-07 01:53:00,31.0,28.0,30.32,ENE,78,0.0,0.0,89,0.00,,,0.00,,2013-03-07 07:53:00,
2013-03-07 02:02:00,32.0,29.0,30.32,ENE,78,0.0,0.0,88,0.00,,,0.00,,2013-03-07 08:02:00,
2013-03-07 02:12:00,32.0,29.0,30.32,ENE,78,0.0,0.0,88,0.00,,,0.00,,2013-03-07 08:12:00,
2013-03-07 02:22:00,32.0,29.0,30.33,ENE,77,0.0,0.0,87,0.00,,,0.00,,2013-03-07 08:22:00,
2013-03-07 02:33:00,32.0,29.0,30.33,ENE,78,0.0,0.0,87,0.00,,,0.00,,2013-03-07 08:33:00,
2013-03-07 02:43:00,32.0,29.0,30.33,ENE,78,0.0,0.0,87,0.00,,,0.00,,2013-03-07 08:43:00,
2013-03-07 02:54:00,32.0,29.0,30.33,ENE,77,0.0,0.0,87,0.00,,,0.00,,2013-03-07 08:54:00,
2013-03-07 03:03:00,32.0,29.0,30.33,ENE,78,0.0,0.0,88,0.00,,,0.00,,2013-03-07 09:03:00,
2013-03-07 03:23:00,32.0,29.0,30.34,ENE,77,0.0,0.0,88,0.00,,,0.00,,2013-03-07 09:23:00,
2013-03-07 03:32:00,32.0,29.0,30.34,ENE,78,0.0,0.0,88,0.00,,,0.00,,2013-03-07 09:32:00,
2013-03-07 03:42:00,32.0,29.0,30.34,ENE,78,0.0,0.0,88,0.00,,,0.00,,2013-03-07 09:42:00,
2013-03-07 03:53:00,32.0,29.0,30.33,ENE,77,0.0,0.0,88,0.00,,,0.00,,2013-03-07 09:53:00,
2013-03-07 04:03:00,31.0,28.0,30.33,ENE,77,0.0,1.0,87,0.00,,,0.00,,2013-03-07 10:03:00,
2013-03-07 04:13:00,31.0,28.0,30.33,ENE,77,0.0,1.0,87,0.00,,,0.00,,2013-03-07 10:13:00,
2013-03-07 07:32:00,33.0,28.0,30.40,East,80,0.0,3.0,82,0.00,,,0.00,,2013-03-07 13:32:00,
2013-03-07 07:42:00,33.0,28.0,30.40,East,80,0.0,3.0,82,0.00,,,0.00,,2013-03-07 13:42:00,
2013-03-07 07:53:00,33.0,28.0,30.40,ESE,108,1.0,2.0,80,0.00,,,0.00,,2013-03-07 13:53:00,
2013-03-07 08:02:00,34.0,28.0,30.40,East,98,1.0,6.0,79,0.00,,,0.00,,2013-03-07 14:02:00,
2013-03-07 08:12:00,34.0,28.0,30.40,East,98,1.0,6.0,79,0.00,,,0.00,,2013-03-07 14:12:00,
2013-03-07 08:23:00,34.0,28.0,30.40,ESE,103,1.0,5.0,78,0.00,,,0.00,,2013-03-07 14:23:00,
2013-03-07 08:32:00,35.0,29.0,30.40,ENE,65,1.0,5.0,77,0.00,,,0.00,,2013-03-07 14:32:00,
2013-03-07 08:42:00,35.0,29.0,30.40,ENE,65,1.0,5.0,77,0.00,,,0.00,,2013-03-07 14:42:00,
2013-03-07 08:54:00,35.0,28.0,30.41,ESE,104,2.0,6.0,76,0.00,,,0.00,,2013-03-07 14:54:00,
2013-03-07 09:02:00,36.0,29.0,30.41,East,79,1.0,4.0,75,0.00,,,0.00,,2013-03-07 15:02:00,
2013-03-07 09:23:00,37.0,29.0,30.41,ESE,113,1.0,5.0,73,0.00,,,0.00,,2013-03-07 15:23:00,
2013-03-07 09:32:00,38.0,29.0,30.41,East,90,1.0,6.0,71,0.00,,,0.00,,2013-03-07 15:32:00,
2013-03-07 09:42:00,38.0,29.0,30.41,East,90,1.0,6.0,71,0.00,,,0.00,,2013-03-07 15:42:00,
2013-03-07 09:53:00,40.0,30.0,30.41,ENE,76,0.0,1.0,67,0.00,,,0.00,,2013-03-07 15:53:00,
2013-03-07 10:02:00,41.0,30.0,30.40,East,88,1.0,3.0,64,0.00,,,0.00,,2013-03-07 16:02:00,
2013-03-07 10:12:00,41.0,30.0,30.40,East,88,1.0,3.0,64,0.00,,,0.00,,2013-03-07 16:12:00,
2013-03-07 10:23:00,41.0,30.0,30.40,ENE,68,0.0,2.0,65,0.00,,,0.00,,2013-03-07 16:23:00,
2013-03-07 10:32:00,43.0,30.0,30.41,East,94,0.0,2.0,61,0.00,,,0.00,,2013-03-07 16:32:00,
2013-03-07 10:42:00,43.0,30.0,30.41,East,94,0.0,2.0,61,0.00,,,0.00,,2013-03-07 16:42:00,
2013-03-07 10:53:00,43.0,30.0,30.41,East,101,2.0,7.0,60,0.00,,,0.00,,2013-03-07 16:53:00,
2013-03-07 11:02:00,44.0,30.0,30.41,ENE,73,1.0,6.0,58,0.00,,,0.00,,2013-03-07 17:02:00,
2013-03-07 11:12:00,44.0,30.0,30.41,ENE,73,1.0,6.0,58,0.00,,,0.00,,2013-03-07 17:12:00,
2013-03-07 11:22:00,46.0,31.0,30.42,NE,51,1.0,4.0,56,0.00,,,0.00,,2013-03-07 17:22:00,
2013-03-07 11:32:00,46.0,31.0,30.40,ENE,72,2.0,7.0,55,0.00,,,0.00,,2013-03-07 17:32:00,
2013-03-07 11:43:00,46.0,31.0,30.40,ENE,72,2.0,7.0,55,0.00,,,0.00,,2013-03-07 17:43:00,
2013-03-07 11:54:00,47.0,31.0,30.39,NE,53,2.0,7.0,54,0.00,,,0.00,,2013-03-07 17:54:00,
2013-03-07 12:03:00,49.0,32.0,30.39,ESE,110,1.0,6.0,52,0.00,,,0.00,,2013-03-07 18:03:00,
2013-03-07 12:12:00,49.0,32.0,30.39,ESE,110,1.0,6.0,52,0.00,,,0.00,,2013-03-07 18:12:00,
2013-03-07 12:22:00,50.0,31.0,30.39,WSW,243,0.0,1.0,47,0.00,,,0.00,,2013-03-07 18:22:00,
2013-03-07 12:32:00,49.0,30.0,30.38,ENE,74,1.0,6.0,48,0.00,,,0.00,,2013-03-07 18:32:00,
2013-03-07 12:42:00,49.0,30.0,30.38,ENE,74,1.0,6.0,48,0.00,,,0.00,,2013-03-07 18:42:00,
2013-03-07 12:53:00,49.0,30.0,30.37,East,94,2.0,5.0,48,0.00,,,0.00,,2013-03-07 18:53:00,
2013-03-07 13:03:00,52.0,32.0,30.37,SE,125,0.0,2.0,47,0.00,,,0.00,,2013-03-07 19:03:00,
2013-03-07 13:12:00,52.0,32.0,30.37,SE,125,0.0,2.0,47,0.00,,,0.00,,2013-03-07 19:12:00,
2013-03-07 13:23:00,53.0,32.0,30.36,SSW,207,0.0,4.0,44,0.00,,,0.00,,2013-03-07 19:23:00,
2013-03-07 13:34:00,54.0,31.0,30.35,SSE,167,0.0,2.0,42,0.00,,,0.00,,2013-03-07 19:34:00,
2013-03-07 13:43:00,54.0,31.0,30.35,SSE,167,0.0,2.0,42,0.00,,,0.00,,2013-03-07 19:43:00,
2013-03-07 13:53:00,55.0,32.0,30.35,SW,217,0.0,7.0,42,0.00,,,0.00,,2013-03-07 19:53:00,
2013-03-07 14:02:00,53.0,31.0,30.34,ENE,61,2.0,6.0,42,0.00,,,0.00,,2013-03-07 20:02:00,
2013-03-07 14:13:00,53.0,31.0,30.34,ENE,61,2.0,6.0,42,0.00,,,0.00,,2013-03-07 20:13:00,
2013-03-07 14:22:00,55.0,32.0,30.33,ESE,118,0.0,2.0,42,0.00,,,0.00,,2013-03-07 20:22:00,
2013-03-07 14:33:00,54.0,31.0,30.33,ENE,77,3.0,7.0,41,0.00,,,0.00,,2013-03-07 20:33:00,
2013-03-07 14:42:00,54.0,31.0,30.33,ENE,77,3.0,7.0,41,0.00,,,0.00,,2013-03-07 20:42:00,
2013-03-07 14:54:00,54.0,31.0,30.32,WSW,246,1.0,5.0,41,0.00,,,0.00,,2013-03-07 20:54:00,
2013-03-07 15:02:00,56.0,32.0,30.32,SE,139,1.0,4.0,40,0.00,,,0.00,,2013-03-07 21:02:00,
2013-03-07 15:12:00,56.0,32.0,30.32,SE,139,1.0,4.0,40,0.00,,,0.00,,2013-03-07 21:12:00,
2013-03-07 15:22:00,56.0,32.0,30.32,SSW,201,1.0,3.0,40,0.00,,,0.00,,2013-03-07 21:22:00,
2013-03-07 15:32:00,57.0,31.0,30.32,East,81,2.0,4.0,37,0.00,,,0.00,,2013-03-07 21:32:00,
2013-03-07 15:42:00,57.0,31.0,30.32,East,81,2.0,4.0,37,0.00,,,0.00,,2013-03-07 21:42:00,
2013-03-07 15:53:00,57.0,32.0,30.32,WSW,245,0.0,2.0,38,0.00,,,0.00,,2013-03-07 21:53:00,
2013-03-07 16:01:00,55.0,32.0,30.32,SSW,193,0.0,6.0,42,0.00,,,0.00,,2013-03-07 22:01:00,
2013-03-07 16:12:00,55.0,32.0,30.32,SSW,193,0.0,6.0,42,0.00,,,0.00,,2013-03-07 22:12:00,
2013-03-07 16:22:00,57.0,32.0,30.32,SE,129,0.0,3.0,38,0.00,,,0.00,,2013-03-07 22:22:00,
2013-03-07 16:32:00,56.0,32.0,30.31,East,90,2.0,5.0,40,0.00,,,0.00,,2013-03-07 22:32:00,
2013-03-07 16:42:00,56.0,32.0,30.31,East,90,2.0,5.0,40,0.00,,,0.00,,2013-03-07 22:42:00,
2013-03-07 16:54:00,55.0,32.0,30.31,ENE,77,3.0,5.0,42,0.00,,,0.00,,2013-03-07 22:54:00,
2013-03-07 17:02:00,55.0,32.0,30.31,ENE,59,0.0,2.0,41,0.00,,,0.00,,2013-03-07 23:02:00,
2013-03-07 17:12:00,55.0,32.0,30.31,ENE,59,0.0,2.0,41,0.00,,,0.00,,2013-03-07 23:12:00,
2013-03-07 17:22:00,53.0,32.0,30.31,South,184,1.0,5.0,44,0.00,,,0.00,,2013-03-07 23:22:00,
2013-03-07 17:33:00,53.0,32.0,30.31,SE,139,1.0,4.0,45,0.00,,,0.00,,2013-03-07 23:33:00,
2013-03-07 17:43:00,53.0,32.0,30.31,SE,139,1.0,4.0,45,0.00,,,0.00,,2013-03-07 23:43:00,
2013-03-07 17:54:00,51.0,31.0,30.31,ENE,68,2.0,4.0,47,0.00,,,0.00,,2013-03-07 23:54:00,
2013-03-07 18:03:00,50.0,32.0,30.31,ENE,66,2.0,4.0,50,0.00,,,0.00,,2013-03-08 00:03:00,
2013-03-07 18:12:00,50.0,32.0,30.31,ENE,66,2.0,4.0,50,0.00,,,0.00,,2013-03-08 00:12:00,
2013-03-07 18:23:00,49.0,32.0,30.31,ENE,74,1.0,3.0,52,0.00,,,0.00,,2013-03-08 00:23:00,
2013-03-07 18:33:00,48.0,32.0,30.30,ENE,75,1.0,2.0,53,0.00,,,0.00,,2013-03-08 00:33:00,
2013-03-07 18:43:00,48.0,32.0,30.30,ENE,75,1.0,2.0,53,0.00,,,0.00,,2013-03-08 00:43:00,
2013-03-07 18:53:00,47.0,32.0,30.30,East,82,0.0,2.0,55,0.00,,,0.00,,2013-03-08 00:53:00,
2013-03-07 19:02:00,47.0,32.0,30.31,East,88,0.0,1.0,56,0.00,,,0.00,,2013-03-08 01:02:00,
2013-03-07 19:11:00,47.0,32.0,30.31,East,88,0.0,1.0,56,0.00,,,0.00,,2013-03-08 01:11:00,
2013-03-07 19:21:00,46.0,32.0,30.31,East,88,0.0,1.0,58,0.00,,,0.00,,2013-03-08 01:21:00,
2013-03-07 19:32:00,46.0,32.0,30.31,East,88,0.0,1.0,59,0.00,,,0.00,,2013-03-08 01:32:00,
2013-03-07 19:42:00,46.0,32.0,30.31,East,88,0.0,1.0,59,0.00,,,0.00,,2013-03-08 01:42:00,
2013-03-07 19:52:00,45.0,32.0,30.31,East,86,0.0,1.0,60,0.00,,,0.00,,2013-03-08 01:52:00,
2013-03-07 20:01:00,44.0,31.0,30.31,East,85,0.0,1.0,61,0.00,,,0.00,,2013-03-08 02:01:00,
2013-03-07 20:11:00,44.0,31.0,30.31,ENE,67,1.0,2.0,61,0.00,,,0.00,,2013-03-08 02:11:00,
2013-03-07 20:22:00,44.0,31.0,30.31,ENE,67,1.0,2.0,61,0.00,,,0.00,,2013-03-08 02:22:00,
2013-03-07 20:32:00,44.0,32.0,30.31,ENE,78,0.0,1.0,63,0.00,,,0.00,,2013-03-08 02:32:00,
2013-03-07 20:42:00,44.0,32.0,30.31,ENE,78,0.0,1.0,63,0.00,,,0.00,,2013-03-08 02:42:00,
2013-03-07 20:53:00,43.0,31.0,30.30,ENE,73,0.0,2.0,63,0.00,,,0.00,,2013-03-08 02:53:00,
2013-03-07 21:02:00,42.0,31.0,30.31,ENE,74,0.0,0.0,64,0.00,,,0.00,,2013-03-08 03:02:00,
2013-03-07 21:12:00,42.0,31.0,30.31,ENE,74,0.0,0.0,64,0.00,,,0.00,,2013-03-08 03:12:00,
2013-03-07 21:22:00,42.0,31.0,30.31,ENE,74,0.0,0.0,66,0.00,,,0.00,,2013-03-08 03:22:00,
2013-03-07 21:32:00,41.0,31.0,30.31,ENE,74,0.0,0.0,68,0.00,,,0.00,,2013-03-08 03:32:00,
2013-03-07 21:42:00,41.0,31.0,30.31,ENE,74,0.0,0.0,68,0.00,,,0.00,,2013-03-08 03:42:00,
2013-03-07 21:53:00,40.0,31.0,30.32,ENE,73,0.0,0.0,70,0.00,,,0.00,,2013-03-08 03:53:00,
2013-03-07 22:01:00,39.0,31.0,30.32,ENE,73,0.0,0.0,72,0.00,,,0.00,,2013-03-08 04:01:00,
2013-03-07 22:11:00,39.0,31.0,30.32,ENE,73,0.0,0.0,72,0.00,,,0.00,,2013-03-08 04:11:00,
2013-03-07 22:22:00,38.0,30.0,30.32,ENE,73,0.0,0.0,74,0.00,,,0.00,,2013-03-08 04:22:00,
2013-03-07 22:32:00,38.0,31.0,30.32,ENE,74,0.0,0.0,75,0.00,,,0.00,,2013-03-08 04:32:00,
2013-03-07 22:42:00,38.0,31.0,30.32,ENE,74,0.0,0.0,75,0.00,,,0.00,,2013-03-08 04:42:00,
2013-03-07 22:52:00,37.0,30.0,30.32,ENE,73,0.0,0.0,77,0.00,,,0.00,,2013-03-08 04:52:00,
2013-03-07 23:02:00,37.0,31.0,30.32,ENE,74,0.0,0.0,78,0.00,,,0.00,,2013-03-08 05:02:00,
2013-03-07 23:12:00,37.0,31.0,30.32,ENE,74,0.0,0.0,78,0.00,,,0.00,,2013-03-08 05:12:00,
2013-03-07 23:22:00,37.0,31.0,30.32,ENE,73,0.0,0.0,78,0.00,,,0.00,,2013-03-08 05:22:00,
2013-03-07 23:32:00,37.0,31.0,30.32,ENE,74,0.0,0.0,79,0.00,,,0.00,,2013-03-08 05:32:00,
2013-03-07 23:42:00,37.0,31.0,30.32,ENE,74,0.0,0.0,79,0.00,,,0.00,,2013-03-08 05:42:00,
2013-03-07 23:52:00,36.0,30.0,30.32,ENE,73,0.0,0.0,79,0.00,,,0.00,,2013-03-08 05:52:00,